Glenwood, Washington
Current Conditions -  °F | °C
As of 2:59 AM on Sunday 23 Nov 2014 (Local Time) from K4S2 Reporting Station
Moderate Rain Moderate Rain  
Wind Chill: 46°   Ceiling: 3800
Heat Index: 46°   Visibility: 10mi
Dew Point: 43°   Wind: 0mph
Humidity: 87%   Direction: NA
Pressure: 30.23"   Gusts: NA
Location:  46.02°N, 121.29°W
Report Text: K4S2 231059Z AUTO 00000KT 10SM RA OVC038 08/06 A3023 RMK AO2 SLP254 T00800060
Loading
Personal Weather Stations






























Interactive Weather Map New forecast layout! Learn more

10-Day Weather Forecast

Advertisements
Track Severe Weather on mobile